createdAt,value
2019-04-07T00:02:19.942Z,7.70
2019-04-07T00:04:48.911Z,7.70
2019-04-07T00:07:17.594Z,7.70
2019-04-07T00:09:46.084Z,7.60
2019-04-07T00:12:14.561Z,7.60
2019-04-07T00:14:43.703Z,7.60
2019-04-07T00:17:12.282Z,7.60
2019-04-07T00:19:40.927Z,7.50
2019-04-07T00:22:09.422Z,7.40
2019-04-07T00:24:39.822Z,7.40
2019-04-07T00:27:10.166Z,7.40
2019-04-07T00:29:39.364Z,7.40
2019-04-07T00:32:08.552Z,7.30
2019-04-07T00:34:37.002Z,7.40
2019-04-07T00:37:05.610Z,7.30
2019-04-07T00:39:34.576Z,7.30
2019-04-07T00:42:03.841Z,7.20
2019-04-07T00:44:32.812Z,7.10
2019-04-07T00:47:01.447Z,7.20
2019-04-07T00:49:29.977Z,7.20
2019-04-07T00:52:19.636Z,7.20
2019-04-07T00:54:48.243Z,7.10
2019-04-07T00:57:17.193Z,7.00
2019-04-07T00:59:46.140Z,7.00
2019-04-07T01:02:15.713Z,7.00
2019-04-07T01:04:44.630Z,6.90
2019-04-07T01:07:32.636Z,7.00
2019-04-07T01:10:02.019Z,7.00
2019-04-07T01:12:30.666Z,6.90
2019-04-07T01:14:59.626Z,7.00
2019-04-07T01:17:29.078Z,7.00
2019-04-07T01:19:57.845Z,6.90
2019-04-07T01:22:26.594Z,6.90
2019-04-07T01:24:55.196Z,6.90
2019-04-07T01:27:23.765Z,6.90
2019-04-07T01:29:52.270Z,6.90
2019-04-07T01:32:21.255Z,6.90
2019-04-07T01:34:50.337Z,6.80
2019-04-07T01:37:18.922Z,6.80
2019-04-07T01:39:47.750Z,6.80
2019-04-07T01:42:21.373Z,6.80
2019-04-07T01:45:08.009Z,6.80
2019-04-07T01:47:54.014Z,6.80
2019-04-07T01:50:39.268Z,6.80
2019-04-07T01:53:12.562Z,6.70
2019-04-07T01:55:52.112Z,6.70
2019-04-07T01:58:22.634Z,6.70
2019-04-07T02:00:52.794Z,6.80
2019-04-07T02:03:32.124Z,6.70
2019-04-07T02:06:11.704Z,6.80
2019-04-07T02:08:47.915Z,6.70
2019-04-07T02:11:18.638Z,6.80
2019-04-07T02:14:05.928Z,6.70
2019-04-07T02:16:39.912Z,6.70
2019-04-07T02:19:10.806Z,6.70
2019-04-07T02:21:59.188Z,6.60
2019-04-07T02:24:42.240Z,6.60
2019-04-07T02:27:15.284Z,6.60
2019-04-07T02:29:45.470Z,6.60
2019-04-07T02:32:24.771Z,6.60
2019-04-07T02:34:55.633Z,6.50
2019-04-07T02:37:44.004Z,6.60
2019-04-07T02:40:15.555Z,6.60
2019-04-07T02:42:51.705Z,6.50
2019-04-07T02:48:01.062Z,6.40
2019-04-07T02:50:31.710Z,6.50
2019-04-07T02:53:07.753Z,6.50
2019-04-07T02:55:43.934Z,6.50
2019-04-07T02:58:27.090Z,6.50
2019-04-07T03:01:14.138Z,6.50
2019-04-07T03:03:48.118Z,6.40
2019-04-07T03:06:34.656Z,6.30
2019-04-07T03:08:53.057Z,6.30
2019-04-07T03:11:35.423Z,6.20
2019-04-07T03:14:17.690Z,6.10
2019-04-07T03:17:02.334Z,6.00
2019-04-07T03:19:44.177Z,6.00
2019-04-07T03:22:23.771Z,6.00
2019-04-07T03:24:58.115Z,6.00
2019-04-07T03:27:38.157Z,5.90
2019-04-07T03:30:11.606Z,5.90
2019-04-07T03:33:00.561Z,5.90
2019-04-07T03:35:34.362Z,5.80
2019-04-07T03:38:24.770Z,5.80
2019-04-07T03:40:54.970Z,5.70
2019-04-07T03:43:25.557Z,5.70
2019-04-07T03:45:57.240Z,5.70
2019-04-07T03:48:31.409Z,5.60
2019-04-07T03:51:09.088Z,5.70
2019-04-07T03:53:57.770Z,5.60
2019-04-07T03:56:37.258Z,5.60
2019-04-07T03:59:13.211Z,5.50
2019-04-07T04:01:47.747Z,5.60
2019-04-07T04:04:24.296Z,5.60
2019-04-07T04:06:57.406Z,5.60
2019-04-07T04:09:38.372Z,5.50
2019-04-07T04:12:20.033Z,5.50
2019-04-07T04:15:06.814Z,5.50
2019-04-07T04:17:35.586Z,5.50
2019-04-07T04:20:06.518Z,5.50
2019-04-07T04:22:35.929Z,5.50
2019-04-07T04:25:27.426Z,5.50
2019-04-07T04:27:57.089Z,5.50
2019-04-07T04:30:25.751Z,5.40
2019-04-07T04:32:55.392Z,5.50
2019-04-07T04:35:24.567Z,5.60
2019-04-07T04:37:54.886Z,5.60
2019-04-07T04:40:24.251Z,5.80
2019-04-07T04:42:53.653Z,6.40
2019-04-07T04:45:22.456Z,6.80
2019-04-07T04:47:51.644Z,7.10
2019-04-07T04:50:21.161Z,7.10
2019-04-07T04:52:52.287Z,7.10
2019-04-07T04:55:20.141Z,7.40
2019-04-07T04:57:48.631Z,7.80
2019-04-07T05:00:17.755Z,7.90
2019-04-07T05:02:49.524Z,8.10
2019-04-07T05:05:20.061Z,8.20
2019-04-07T05:07:57.110Z,8.10
2019-04-07T05:10:19.139Z,8.20
2019-04-07T05:12:47.276Z,8.50
2019-04-07T05:15:16.305Z,8.80
2019-04-07T05:17:44.937Z,9.20
2019-04-07T05:20:13.595Z,9.90
2019-04-07T05:22:42.248Z,10.10
2019-04-07T05:25:10.817Z,10.20
2019-04-07T05:27:39.505Z,10.30
2019-04-07T05:30:08.334Z,10.50
2019-04-07T05:32:37.997Z,10.70
2019-04-07T05:35:07.853Z,10.80
2019-04-07T05:37:36.644Z,10.60
2019-04-07T05:40:05.832Z,10.90
2019-04-07T05:42:34.493Z,10.50
2019-04-07T05:45:04.071Z,9.70
2019-04-07T05:47:33.026Z,9.00
2019-04-07T05:50:03.839Z,8.70
2019-04-07T05:52:35.374Z,8.40
2019-04-07T05:55:02.725Z,8.20
2019-04-07T05:57:33.567Z,8.10
2019-04-07T06:00:04.244Z,8.00
2019-04-07T06:02:34.125Z,7.90
2019-04-07T06:05:03.245Z,7.80
2019-04-07T06:07:34.871Z,7.70
2019-04-07T06:10:02.379Z,7.80
2019-04-07T06:12:31.631Z,7.60
2019-04-07T06:15:01.889Z,7.80
2019-04-07T06:17:31.417Z,7.90
2019-04-07T06:20:00.123Z,7.80
2019-04-07T06:22:28.585Z,7.80
2019-04-07T06:25:00.710Z,7.80
2019-04-07T06:27:28.972Z,7.90
2019-04-07T06:30:00.092Z,7.90
2019-04-07T06:32:27.635Z,7.90
2019-04-07T06:34:56.225Z,8.10
2019-04-07T06:37:27.833Z,8.30
2019-04-07T06:39:54.881Z,8.50
2019-04-07T06:42:24.137Z,8.90
2019-04-07T06:44:52.921Z,8.90
2019-04-07T06:47:25.964Z,9.00
2019-04-07T06:50:14.122Z,9.30
2019-04-07T06:52:46.825Z,9.30
2019-04-07T06:55:30.635Z,9.10
2019-04-07T06:58:10.011Z,9.00
2019-04-07T07:00:46.260Z,8.80
2019-04-07T07:03:29.112Z,8.80
2019-04-07T07:06:11.379Z,8.80
2019-04-07T07:08:46.770Z,8.90
2019-04-07T07:11:27.975Z,9.00
2019-04-07T07:13:53.168Z,8.80
2019-04-07T07:16:23.951Z,9.00
2019-04-07T07:18:56.973Z,9.10
2019-04-07T07:21:27.501Z,9.20
2019-04-07T07:23:56.655Z,9.40
2019-04-07T07:26:28.320Z,9.40
2019-04-07T07:28:57.465Z,9.30
2019-04-07T07:31:26.605Z,9.50
2019-04-07T07:33:56.056Z,9.40
2019-04-07T07:36:24.688Z,9.50
2019-04-07T07:39:00.566Z,9.70
2019-04-07T07:41:25.341Z,9.70
2019-04-07T07:43:54.761Z,9.70
2019-04-07T07:46:23.816Z,9.60
2019-04-07T07:48:57.134Z,9.60
2019-04-07T07:51:23.562Z,9.80
2019-04-07T07:53:52.683Z,9.90
2019-04-07T07:56:21.468Z,9.80
2019-04-07T07:58:51.510Z,9.60
2019-04-07T08:01:20.140Z,9.70
2019-04-07T08:03:52.575Z,9.80
2019-04-07T08:06:19.393Z,9.60
2019-04-07T08:08:48.563Z,10.00
2019-04-07T08:11:18.713Z,10.30
2019-04-07T08:13:47.472Z,10.40
2019-04-07T08:16:16.372Z,10.60
2019-04-07T08:18:46.445Z,10.60
2019-04-07T08:21:18.478Z,10.70
2019-04-07T08:23:45.534Z,10.70
2019-04-07T08:26:15.818Z,10.40
2019-04-07T08:28:44.989Z,10.20
2019-04-07T08:31:17.770Z,10.10
2019-04-07T08:33:46.386Z,10.10
2019-04-07T08:36:14.949Z,10.00
2019-04-07T08:38:43.711Z,10.00
2019-04-07T08:41:14.277Z,10.10
2019-04-07T08:43:42.525Z,10.20
2019-04-07T08:46:11.083Z,10.40
2019-04-07T08:48:40.179Z,10.40
2019-04-07T08:51:08.798Z,10.50
2019-04-07T08:53:37.777Z,11.30
2019-04-07T08:56:07.586Z,12.00
2019-04-07T08:58:38.773Z,12.30
2019-04-07T09:01:07.365Z,12.30
2019-04-07T09:03:35.958Z,12.30
2019-04-07T09:06:04.813Z,12.70
2019-04-07T09:08:36.112Z,12.80
2019-04-07T09:11:07.902Z,13.20
2019-04-07T09:13:36.404Z,14.10
2019-04-07T09:16:17.207Z,15.20
2019-04-07T09:19:06.903Z,15.80
2019-04-07T09:21:52.843Z,16.40
2019-04-07T09:27:30.292Z,17.50
2019-04-07T09:30:16.742Z,17.40
2019-04-07T09:32:59.530Z,17.90
2019-04-07T09:35:32.547Z,18.60
2019-04-07T09:38:21.725Z,18.50
2019-04-07T09:40:54.576Z,18.40
2019-04-07T09:43:31.929Z,16.90
2019-04-07T09:46:10.316Z,17.10
2019-04-07T09:48:42.998Z,17.40
2019-04-07T09:51:15.311Z,17.70
2019-04-07T09:53:50.239Z,17.20
2019-04-07T09:56:31.053Z,16.50
2019-04-07T09:59:08.052Z,16.50
2019-04-07T10:01:55.068Z,16.00
2019-04-07T10:04:44.239Z,15.40
2019-04-07T10:07:31.546Z,14.60
2019-04-07T10:10:10.263Z,14.40
2019-04-07T10:12:33.525Z,14.00
2019-04-07T10:15:11.778Z,13.50
2019-04-07T10:17:41.769Z,13.30
2019-04-07T10:20:27.596Z,13.30
2019-04-07T10:23:07.163Z,13.20
2019-04-07T10:25:54.935Z,13.00
2019-04-07T10:28:27.787Z,13.10
2019-04-07T10:31:12.739Z,13.10
2019-04-07T10:33:54.557Z,13.00
2019-04-07T10:36:38.680Z,13.10
2019-04-07T10:39:12.009Z,13.30
2019-04-07T10:41:42.714Z,13.40
2019-04-07T10:44:12.939Z,13.50
2019-04-07T10:46:43.860Z,13.80
2019-04-07T10:49:14.639Z,14.10
2019-04-07T10:51:53.742Z,14.10
2019-04-07T10:54:25.056Z,14.50
2019-04-07T10:56:55.350Z,15.30
2019-04-07T10:59:32.115Z,15.40
2019-04-07T11:02:11.958Z,15.30
2019-04-07T11:04:54.290Z,15.90
2019-04-07T11:07:35.157Z,16.60
2019-04-07T11:10:15.895Z,17.10
2019-04-07T11:13:03.325Z,17.00
2019-04-07T11:15:39.375Z,17.00
2019-04-07T11:18:12.392Z,16.90
2019-04-07T11:20:43.357Z,16.60
2019-04-07T11:23:30.034Z,16.80
2019-04-07T11:26:16.731Z,17.50
2019-04-07T11:28:46.952Z,17.40
2019-04-07T11:31:17.821Z,17.90
2019-04-07T11:33:53.082Z,17.80
2019-04-07T11:36:26.098Z,17.70
2019-04-07T11:39:08.952Z,17.90
2019-04-07T11:41:54.752Z,17.90
2019-04-07T11:44:31.267Z,17.50
2019-04-07T11:47:04.945Z,17.00
2019-04-07T11:49:40.863Z,16.70
2019-04-07T11:52:11.475Z,16.90
2019-04-07T11:54:58.010Z,16.50
2019-04-07T11:57:38.686Z,16.60
2019-04-07T12:00:22.062Z,16.20
2019-04-07T12:02:55.600Z,16.40
2019-04-07T12:05:42.427Z,16.30
2019-04-07T12:08:35.797Z,16.50
2019-04-07T12:11:05.074Z,16.90
2019-04-07T12:13:43.961Z,17.00
2019-04-07T12:16:24.782Z,17.00
2019-04-07T12:19:05.815Z,16.40
2019-04-07T12:21:42.783Z,16.40
2019-04-07T12:24:13.646Z,16.50
2019-04-07T12:27:02.248Z,16.70
2019-04-07T12:29:41.662Z,16.40
2019-04-07T12:32:21.324Z,16.50
2019-04-07T12:34:58.723Z,16.30
2019-04-07T12:37:32.934Z,16.00
2019-04-07T12:40:11.307Z,15.70
2019-04-07T12:42:41.733Z,15.60
2019-04-07T12:45:19.051Z,15.40
2019-04-07T12:47:49.343Z,15.20
2019-04-07T12:50:28.308Z,15.00
2019-04-07T12:53:02.809Z,15.00
2019-04-07T12:55:32.699Z,14.90
2019-04-07T12:58:03.170Z,14.80
2019-04-07T13:00:44.676Z,14.90
2019-04-07T13:03:21.195Z,14.90
2019-04-07T13:05:59.229Z,14.90
2019-04-07T13:08:38.219Z,14.70
2019-04-07T13:11:30.090Z,14.60
2019-04-07T13:14:07.417Z,14.60
2019-04-07T13:16:39.178Z,14.80
2019-04-07T13:22:00.814Z,14.80
2019-04-07T13:24:37.786Z,14.90
2019-04-07T13:27:06.810Z,14.90
2019-04-07T13:29:41.404Z,14.70
2019-04-07T13:32:21.815Z,14.90
2019-04-07T13:35:08.357Z,14.90
2019-04-07T13:37:44.903Z,15.10
2019-04-07T13:40:34.532Z,15.20
2019-04-07T13:43:17.565Z,15.20
2019-04-07T13:45:48.099Z,15.10
2019-04-07T13:48:20.037Z,15.10
2019-04-07T13:50:56.313Z,15.10
2019-04-07T13:53:49.886Z,14.90
2019-04-07T13:56:24.269Z,14.70
2019-04-07T13:59:01.017Z,14.70
2019-04-07T14:01:34.421Z,14.60
2019-04-07T14:04:15.657Z,14.70
2019-04-07T14:06:55.398Z,14.70
2019-04-07T14:09:43.158Z,14.70
2019-04-07T14:12:23.738Z,14.90
2019-04-07T14:15:10.374Z,15.30
2019-04-07T14:17:54.680Z,15.20
2019-04-07T14:20:36.528Z,15.30
2019-04-07T14:23:22.527Z,15.20
2019-04-07T14:25:58.686Z,15.40
2019-04-07T14:28:45.796Z,15.50
2019-04-07T14:31:23.065Z,15.40
2019-04-07T14:33:53.496Z,15.50
2019-04-07T14:36:40.460Z,15.20
2019-04-07T14:39:28.181Z,15.10
2019-04-07T14:42:13.622Z,15.10
2019-04-07T14:44:44.612Z,15.20
2019-04-07T14:47:31.288Z,15.10
2019-04-07T14:50:13.524Z,15.10
2019-04-07T14:52:47.159Z,15.20
2019-04-07T14:55:23.791Z,15.20
2019-04-07T14:57:56.929Z,15.00
2019-04-07T15:00:29.942Z,15.10
2019-04-07T15:02:58.452Z,15.00
2019-04-07T15:05:28.801Z,14.90
2019-04-07T15:08:00.020Z,14.80
2019-04-07T15:10:32.937Z,14.80
2019-04-07T15:13:03.133Z,14.90
2019-04-07T15:15:33.863Z,14.80
2019-04-07T15:18:03.600Z,14.70
2019-04-07T15:20:32.405Z,14.70
2019-04-07T15:23:01.890Z,14.70
2019-04-07T15:25:31.571Z,14.70
2019-04-07T15:28:01.060Z,14.80
2019-04-07T15:30:29.942Z,14.70
2019-04-07T15:33:01.268Z,14.80
2019-04-07T15:35:29.637Z,14.90
2019-04-07T15:37:59.094Z,14.80
2019-04-07T15:40:28.127Z,14.90
2019-04-07T15:42:56.930Z,14.80
2019-04-07T15:45:25.539Z,14.90
2019-04-07T15:47:54.134Z,14.90
2019-04-07T15:50:22.710Z,14.90
2019-04-07T15:52:51.413Z,14.80
2019-04-07T15:55:20.872Z,14.80
2019-04-07T15:57:54.296Z,14.70
2019-04-07T16:00:20.443Z,14.70
2019-04-07T16:02:50.206Z,14.60
2019-04-07T16:05:20.323Z,14.50
2019-04-07T16:07:51.292Z,14.60
2019-04-07T16:10:21.990Z,14.40
2019-04-07T16:12:52.247Z,14.40
2019-04-07T16:15:19.602Z,14.30
2019-04-07T16:17:50.190Z,14.20
2019-04-07T16:20:24.538Z,14.10
2019-04-07T16:22:51.338Z,14.00
2019-04-07T16:25:19.572Z,14.00
2019-04-07T16:27:48.989Z,13.90
2019-04-07T16:30:19.028Z,13.90
2019-04-07T16:32:48.121Z,13.80
2019-04-07T16:35:18.342Z,13.80
2019-04-07T16:37:47.845Z,13.80
2019-04-07T16:40:16.605Z,13.70
2019-04-07T16:43:00.392Z,13.70
2019-04-07T16:45:17.809Z,13.60
2019-04-07T16:47:45.716Z,13.60
2019-04-07T16:50:18.114Z,13.50
2019-04-07T16:52:47.137Z,13.50
2019-04-07T16:55:37.226Z,13.50
2019-04-07T16:58:06.424Z,13.40
2019-04-07T17:00:36.434Z,13.30
2019-04-07T17:03:06.233Z,13.30
2019-04-07T17:05:36.389Z,13.30
2019-04-07T17:08:05.458Z,13.30
2019-04-07T17:10:35.399Z,13.20
2019-04-07T17:13:15.442Z,13.10
2019-04-07T17:15:38.623Z,13.10
2019-04-07T17:18:08.410Z,13.10
2019-04-07T17:20:41.169Z,13.00
2019-04-07T17:23:12.059Z,13.00
2019-04-07T17:25:42.918Z,12.90
2019-04-07T17:28:12.891Z,12.90
2019-04-07T17:30:41.440Z,12.80
2019-04-07T17:33:10.153Z,12.80
2019-04-07T17:35:39.061Z,12.70
2019-04-07T17:38:09.385Z,12.60
2019-04-07T17:40:39.469Z,12.60
2019-04-07T17:43:09.635Z,12.60
2019-04-07T17:46:02.005Z,12.60
2019-04-07T17:48:41.447Z,12.60
2019-04-07T17:51:10.111Z,12.60
2019-04-07T17:53:51.678Z,12.50
2019-04-07T17:56:40.701Z,12.50
2019-04-07T17:59:26.962Z,12.50
2019-04-07T18:02:14.218Z,12.30
2019-04-07T18:05:04.348Z,12.30
2019-04-07T18:07:37.675Z,12.30
2019-04-07T18:10:22.559Z,12.20
2019-04-07T18:13:10.774Z,12.20
2019-04-07T18:15:43.411Z,12.10
2019-04-07T18:18:19.836Z,12.10
2019-04-07T18:21:03.443Z,12.00
2019-04-07T18:26:28.472Z,11.90
2019-04-07T18:29:01.840Z,11.90
2019-04-07T18:31:47.277Z,11.90
2019-04-07T18:34:18.463Z,11.90
2019-04-07T18:36:52.187Z,11.90
2019-04-07T18:39:40.807Z,11.90
2019-04-07T18:42:26.181Z,11.80
2019-04-07T18:45:12.699Z,11.90
2019-04-07T18:47:54.873Z,11.80
2019-04-07T18:50:25.196Z,11.80
2019-04-07T18:53:07.740Z,11.80
2019-04-07T18:55:39.070Z,11.70
2019-04-07T18:58:26.658Z,11.70
2019-04-07T19:01:10.155Z,11.60
2019-04-07T19:03:51.053Z,11.70
2019-04-07T19:06:24.760Z,11.60
2019-04-07T19:09:04.766Z,11.70
2019-04-07T19:12:02.425Z,11.60
2019-04-07T19:14:47.825Z,11.60
2019-04-07T19:17:30.480Z,11.50
2019-04-07T19:20:12.981Z,11.50
2019-04-07T19:22:44.385Z,11.40
2019-04-07T19:25:31.727Z,11.40
2019-04-07T19:28:09.438Z,11.30
2019-04-07T19:30:48.649Z,11.20
2019-04-07T19:33:36.352Z,11.20
2019-04-07T19:36:23.710Z,11.20
2019-04-07T19:39:11.885Z,11.20
2019-04-07T19:41:46.879Z,11.20
2019-04-07T19:44:35.471Z,11.10
2019-04-07T19:47:14.179Z,11.00
2019-04-07T19:49:54.329Z,10.90
2019-04-07T19:52:46.402Z,10.70
2019-04-07T19:55:26.674Z,10.60
2019-04-07T19:58:09.759Z,10.40
2019-04-07T20:00:58.321Z,10.40
2019-04-07T20:03:36.888Z,10.40
2019-04-07T20:06:23.908Z,10.40
2019-04-07T20:09:11.120Z,10.40
2019-04-07T20:11:43.752Z,10.50
2019-04-07T20:14:15.671Z,10.60
2019-04-07T20:17:02.092Z,10.60
2019-04-07T20:19:41.437Z,10.80
2019-04-07T20:22:17.610Z,10.70
2019-04-07T20:24:49.629Z,10.70
2019-04-07T20:27:31.887Z,10.70
2019-04-07T20:30:16.336Z,10.70
2019-04-07T20:32:46.857Z,10.60
2019-04-07T20:35:19.764Z,10.60
2019-04-07T20:38:03.477Z,10.50
2019-04-07T20:40:38.861Z,10.50
2019-04-07T20:43:10.094Z,10.60
2019-04-07T20:45:58.541Z,10.60
2019-04-07T20:48:33.488Z,10.50
2019-04-07T20:51:17.375Z,10.50
2019-04-07T20:54:03.918Z,10.50
2019-04-07T20:56:36.940Z,10.50
2019-04-07T20:59:16.027Z,10.50
2019-04-07T21:02:07.114Z,10.60
2019-04-07T21:04:35.024Z,10.60
2019-04-07T21:07:18.490Z,10.60
2019-04-07T21:09:51.254Z,10.60
2019-04-07T21:12:30.186Z,10.40
2019-04-07T21:15:22.875Z,9.90
2019-04-07T21:17:52.370Z,9.50
2019-04-07T21:20:22.752Z,9.50
2019-04-07T21:23:05.123Z,9.50
2019-04-07T21:25:39.174Z,9.40
2019-04-07T21:28:12.658Z,9.20
2019-04-07T21:30:46.263Z,9.00
2019-04-07T21:33:17.333Z,8.60
2019-04-07T21:35:47.966Z,8.50
2019-04-07T21:38:21.532Z,8.30
2019-04-07T21:40:56.070Z,8.00
2019-04-07T21:43:36.086Z,7.80
2019-04-07T21:46:13.018Z,7.50
2019-04-07T21:48:45.465Z,7.30
2019-04-07T21:51:16.654Z,7.30
2019-04-07T21:53:47.504Z,7.20
2019-04-07T21:56:17.973Z,7.10
2019-04-07T21:58:49.064Z,7.00
2019-04-07T22:01:19.212Z,7.00
2019-04-07T22:03:52.477Z,6.90
2019-04-07T22:06:32.170Z,7.00
2019-04-07T22:09:16.651Z,7.00
2019-04-07T22:11:45.844Z,7.00
2019-04-07T22:14:14.662Z,6.90
2019-04-07T22:16:45.154Z,6.90
2019-04-07T22:19:15.324Z,6.90
2019-04-07T22:21:44.509Z,6.90
2019-04-07T22:24:13.215Z,6.70
2019-04-07T22:26:46.212Z,6.70
2019-04-07T22:29:14.722Z,6.60
2019-04-07T22:32:03.368Z,6.60
2019-04-07T22:34:32.660Z,6.40
2019-04-07T22:37:02.611Z,6.40
2019-04-07T22:39:32.110Z,6.40
2019-04-07T22:42:00.763Z,6.40
2019-04-07T22:44:31.442Z,6.40
2019-04-07T22:46:59.441Z,6.30
2019-04-07T22:49:30.844Z,6.30
2019-04-07T22:52:18.922Z,6.20
2019-04-07T22:54:47.808Z,6.20
2019-04-07T22:57:16.482Z,6.00
2019-04-07T22:59:45.265Z,6.10
2019-04-07T23:02:13.966Z,5.90
2019-04-07T23:04:42.674Z,5.90
2019-04-07T23:07:11.696Z,5.90
2019-04-07T23:09:41.140Z,5.80
2019-04-07T23:12:10.903Z,5.70
2019-04-07T23:14:40.156Z,5.60
2019-04-07T23:17:08.785Z,5.60
2019-04-07T23:19:37.869Z,5.60
2019-04-07T23:22:06.572Z,5.60
2019-04-07T23:24:35.217Z,5.60
2019-04-07T23:27:04.138Z,5.50
2019-04-07T23:29:32.883Z,5.50
2019-04-07T23:32:01.846Z,5.50
2019-04-07T23:34:31.099Z,5.50
2019-04-07T23:37:00.005Z,5.50
2019-04-07T23:39:29.259Z,5.50
2019-04-07T23:41:58.596Z,5.40
2019-04-07T23:44:46.637Z,5.30
2019-04-07T23:47:15.286Z,5.30
2019-04-07T23:49:44.678Z,5.30
2019-04-07T23:52:13.139Z,5.20
2019-04-07T23:54:41.886Z,5.10
2019-04-07T23:57:11.312Z,5.10
2019-04-07T23:59:40.085Z,5.10
